sensor_id;sensor_type;location;lat;lon;timestamp;temperature;humidity
16118;DHT22;8163;50.118;5.342;2023-04-06T00:00:37;5.10;54.10
16118;DHT22;8163;50.118;5.342;2023-04-06T00:03:04;5.10;54.20
16118;DHT22;8163;50.118;5.342;2023-04-06T00:05:31;5.10;54.20
16118;DHT22;8163;50.118;5.342;2023-04-06T00:07:58;5.10;54.20
16118;DHT22;8163;50.118;5.342;2023-04-06T00:10:26;5.10;54.20
16118;DHT22;8163;50.118;5.342;2023-04-06T00:12:53;5.00;54.10
16118;DHT22;8163;50.118;5.342;2023-04-06T00:15:20;5.00;54.20
16118;DHT22;8163;50.118;5.342;2023-04-06T00:17:50;5.00;54.30
16118;DHT22;8163;50.118;5.342;2023-04-06T00:20:17;5.00;54.30
16118;DHT22;8163;50.118;5.342;2023-04-06T00:22:44;5.00;54.40
16118;DHT22;8163;50.118;5.342;2023-04-06T00:25:13;4.90;54.30
16118;DHT22;8163;50.118;5.342;2023-04-06T00:27:41;4.90;54.40
16118;DHT22;8163;50.118;5.342;2023-04-06T00:30:09;4.90;54.40
16118;DHT22;8163;50.118;5.342;2023-04-06T00:32:36;4.80;54.40
16118;DHT22;8163;50.118;5.342;2023-04-06T00:35:05;4.80;54.50
16118;DHT22;8163;50.118;5.342;2023-04-06T00:37:32;4.80;54.60
16118;DHT22;8163;50.118;5.342;2023-04-06T00:40:00;4.80;54.70
16118;DHT22;8163;50.118;5.342;2023-04-06T00:42:27;4.70;54.70
16118;DHT22;8163;50.118;5.342;2023-04-06T00:44:56;4.70;54.70
16118;DHT22;8163;50.118;5.342;2023-04-06T00:47:23;4.70;54.80
16118;DHT22;8163;50.118;5.342;2023-04-06T00:49:51;4.70;54.90
16118;DHT22;8163;50.118;5.342;2023-04-06T00:52:21;4.70;55.00
16118;DHT22;8163;50.118;5.342;2023-04-06T00:54:49;4.70;55.00
16118;DHT22;8163;50.118;5.342;2023-04-06T00:57:16;4.70;55.00
16118;DHT22;8163;50.118;5.342;2023-04-06T00:59:43;4.60;55.00
16118;DHT22;8163;50.118;5.342;2023-04-06T01:02:11;4.60;55.00
16118;DHT22;8163;50.118;5.342;2023-04-06T01:04:39;4.60;55.10
16118;DHT22;8163;50.118;5.342;2023-04-06T01:07:06;4.60;55.10
16118;DHT22;8163;50.118;5.342;2023-04-06T01:09:35;4.50;55.10
16118;DHT22;8163;50.118;5.342;2023-04-06T01:12:03;4.50;55.10
16118;DHT22;8163;50.118;5.342;2023-04-06T01:14:30;4.50;55.20
16118;DHT22;8163;50.118;5.342;2023-04-06T01:16:58;4.50;55.30
16118;DHT22;8163;50.118;5.342;2023-04-06T01:19:27;4.50;55.30
16118;DHT22;8163;50.118;5.342;2023-04-06T01:21:54;4.40;55.40
16118;DHT22;8163;50.118;5.342;2023-04-06T01:24:22;4.40;55.60
16118;DHT22;8163;50.118;5.342;2023-04-06T01:26:49;4.40;55.80
16118;DHT22;8163;50.118;5.342;2023-04-06T01:29:17;4.50;55.90
16118;DHT22;8163;50.118;5.342;2023-04-06T01:31:45;4.50;55.90
16118;DHT22;8163;50.118;5.342;2023-04-06T01:34:12;4.60;56.30
16118;DHT22;8163;50.118;5.342;2023-04-06T01:36:39;4.60;56.40
16118;DHT22;8163;50.118;5.342;2023-04-06T01:39:08;4.70;56.60
16118;DHT22;8163;50.118;5.342;2023-04-06T01:41:36;4.70;56.60
16118;DHT22;8163;50.118;5.342;2023-04-06T01:44:03;4.80;56.70
16118;DHT22;8163;50.118;5.342;2023-04-06T01:46:31;4.80;56.80
16118;DHT22;8163;50.118;5.342;2023-04-06T01:48:58;4.80;57.00
16118;DHT22;8163;50.118;5.342;2023-04-06T01:51:26;4.80;57.00
16118;DHT22;8163;50.118;5.342;2023-04-06T01:53:53;4.90;57.10
16118;DHT22;8163;50.118;5.342;2023-04-06T01:56:20;4.90;57.20
16118;DHT22;8163;50.118;5.342;2023-04-06T01:58:49;4.90;57.20
16118;DHT22;8163;50.118;5.342;2023-04-06T02:01:17;5.00;57.30
16118;DHT22;8163;50.118;5.342;2023-04-06T02:03:44;4.90;57.20
16118;DHT22;8163;50.118;5.342;2023-04-06T02:06:11;5.00;57.90
16118;DHT22;8163;50.118;5.342;2023-04-06T02:08:38;5.00;57.50
16118;DHT22;8163;50.118;5.342;2023-04-06T02:11:05;5.00;57.40
16118;DHT22;8163;50.118;5.342;2023-04-06T02:13:34;5.00;57.40
16118;DHT22;8163;50.118;5.342;2023-04-06T02:16:02;5.00;57.50
16118;DHT22;8163;50.118;5.342;2023-04-06T02:18:30;5.00;57.60
16118;DHT22;8163;50.118;5.342;2023-04-06T02:20:57;5.00;57.60
16118;DHT22;8163;50.118;5.342;2023-04-06T02:23:24;5.00;57.70
16118;DHT22;8163;50.118;5.342;2023-04-06T02:25:52;5.00;57.90
16118;DHT22;8163;50.118;5.342;2023-04-06T02:28:19;5.00;58.00
16118;DHT22;8163;50.118;5.342;2023-04-06T02:30:46;5.00;58.10
16118;DHT22;8163;50.118;5.342;2023-04-06T02:33:15;5.00;58.30
16118;DHT22;8163;50.118;5.342;2023-04-06T02:35:44;5.00;58.40
16118;DHT22;8163;50.118;5.342;2023-04-06T02:38:11;5.00;58.50
16118;DHT22;8163;50.118;5.342;2023-04-06T02:40:38;5.00;58.70
16118;DHT22;8163;50.118;5.342;2023-04-06T02:43:05;5.00;58.90
16118;DHT22;8163;50.118;5.342;2023-04-06T02:45:32;5.00;59.00
16118;DHT22;8163;50.118;5.342;2023-04-06T02:47:59;5.10;59.00
16118;DHT22;8163;50.118;5.342;2023-04-06T02:50:28;5.10;59.30
16118;DHT22;8163;50.118;5.342;2023-04-06T02:52:55;5.10;59.50
16118;DHT22;8163;50.118;5.342;2023-04-06T02:55:23;5.10;59.60
16118;DHT22;8163;50.118;5.342;2023-04-06T02:57:51;5.10;59.80
16118;DHT22;8163;50.118;5.342;2023-04-06T03:00:18;5.20;59.90
16118;DHT22;8163;50.118;5.342;2023-04-06T03:02:46;5.10;59.90
16118;DHT22;8163;50.118;5.342;2023-04-06T03:05:13;5.20;60.00
16118;DHT22;8163;50.118;5.342;2023-04-06T03:07:42;5.20;60.30
16118;DHT22;8163;50.118;5.342;2023-04-06T03:10:09;5.20;60.40
16118;DHT22;8163;50.118;5.342;2023-04-06T03:12:36;5.30;60.50
16118;DHT22;8163;50.118;5.342;2023-04-06T03:15:04;5.20;60.40
16118;DHT22;8163;50.118;5.342;2023-04-06T03:17:31;5.20;60.40
16118;DHT22;8163;50.118;5.342;2023-04-06T03:19:59;5.20;60.50
16118;DHT22;8163;50.118;5.342;2023-04-06T03:22:26;5.30;60.80
16118;DHT22;8163;50.118;5.342;2023-04-06T03:24:55;5.30;60.80
16118;DHT22;8163;50.118;5.342;2023-04-06T03:27:22;5.30;60.90
16118;DHT22;8163;50.118;5.342;2023-04-06T03:29:49;5.30;61.30
16118;DHT22;8163;50.118;5.342;2023-04-06T03:32:17;5.30;61.20
16118;DHT22;8163;50.118;5.342;2023-04-06T03:34:44;5.40;61.40
16118;DHT22;8163;50.118;5.342;2023-04-06T03:37:11;5.40;61.50
16118;DHT22;8163;50.118;5.342;2023-04-06T03:39:38;5.30;61.60
16118;DHT22;8163;50.118;5.342;2023-04-06T03:42:07;5.40;61.80
16118;DHT22;8163;50.118;5.342;2023-04-06T03:44:35;5.40;61.90
16118;DHT22;8163;50.118;5.342;2023-04-06T03:47:02;5.40;62.10
16118;DHT22;8163;50.118;5.342;2023-04-06T03:49:30;5.40;62.30
16118;DHT22;8163;50.118;5.342;2023-04-06T03:51:58;5.40;62.40
16118;DHT22;8163;50.118;5.342;2023-04-06T03:54:25;5.40;62.30
16118;DHT22;8163;50.118;5.342;2023-04-06T03:56:52;5.40;62.40
16118;DHT22;8163;50.118;5.342;2023-04-06T03:59:21;5.40;62.60
16118;DHT22;8163;50.118;5.342;2023-04-06T04:01:48;5.40;62.80
16118;DHT22;8163;50.118;5.342;2023-04-06T04:04:15;5.40;62.70
16118;DHT22;8163;50.118;5.342;2023-04-06T04:06:43;5.40;62.80
16118;DHT22;8163;50.118;5.342;2023-04-06T04:09:10;5.40;62.80
16118;DHT22;8163;50.118;5.342;2023-04-06T04:11:37;5.40;63.10
16118;DHT22;8163;50.118;5.342;2023-04-06T04:14:04;5.40;63.10
16118;DHT22;8163;50.118;5.342;2023-04-06T04:16:33;5.40;63.30
16118;DHT22;8163;50.118;5.342;2023-04-06T04:19:00;5.40;64.00
16118;DHT22;8163;50.118;5.342;2023-04-06T04:21:29;5.40;63.20
16118;DHT22;8163;50.118;5.342;2023-04-06T04:23:57;5.40;63.20
16118;DHT22;8163;50.118;5.342;2023-04-06T04:26:24;5.40;63.30
16118;DHT22;8163;50.118;5.342;2023-04-06T04:28:51;5.30;63.10
16118;DHT22;8163;50.118;5.342;2023-04-06T04:31:18;5.30;63.10
16118;DHT22;8163;50.118;5.342;2023-04-06T04:33:49;5.30;63.00
16118;DHT22;8163;50.118;5.342;2023-04-06T04:36:16;5.30;63.10
16118;DHT22;8163;50.118;5.342;2023-04-06T04:38:43;5.30;63.10
16118;DHT22;8163;50.118;5.342;2023-04-06T04:41:10;5.30;63.10
16118;DHT22;8163;50.118;5.342;2023-04-06T04:43:37;5.30;63.20
16118;DHT22;8163;50.118;5.342;2023-04-06T04:46:05;5.30;63.20
16118;DHT22;8163;50.118;5.342;2023-04-06T04:48:33;5.30;63.20
16118;DHT22;8163;50.118;5.342;2023-04-06T04:51:02;5.30;63.20
16118;DHT22;8163;50.118;5.342;2023-04-06T04:53:29;5.20;63.20
16118;DHT22;8163;50.118;5.342;2023-04-06T04:55:56;5.30;63.30
16118;DHT22;8163;50.118;5.342;2023-04-06T04:58:23;5.30;63.50
16118;DHT22;8163;50.118;5.342;2023-04-06T05:00:51;5.40;63.70
16118;DHT22;8163;50.118;5.342;2023-04-06T05:03:21;5.40;63.60
16118;DHT22;8163;50.118;5.342;2023-04-06T05:05:48;5.40;63.60
16118;DHT22;8163;50.118;5.342;2023-04-06T05:08:17;5.50;63.90
16118;DHT22;8163;50.118;5.342;2023-04-06T05:10:44;5.50;63.80
16118;DHT22;8163;50.118;5.342;2023-04-06T05:13:12;5.50;63.80
16118;DHT22;8163;50.118;5.342;2023-04-06T05:15:39;5.50;63.90
16118;DHT22;8163;50.118;5.342;2023-04-06T05:18:08;5.50;64.10
16118;DHT22;8163;50.118;5.342;2023-04-06T05:20:36;5.50;63.90
16118;DHT22;8163;50.118;5.342;2023-04-06T05:23:03;5.60;64.00
16118;DHT22;8163;50.118;5.342;2023-04-06T05:25:32;5.60;64.10
16118;DHT22;8163;50.118;5.342;2023-04-06T05:27:59;5.60;64.00
16118;DHT22;8163;50.118;5.342;2023-04-06T05:30:26;5.60;64.10
16118;DHT22;8163;50.118;5.342;2023-04-06T05:32:54;5.60;64.00
16118;DHT22;8163;50.118;5.342;2023-04-06T05:35:21;5.60;64.10
16118;DHT22;8163;50.118;5.342;2023-04-06T05:37:48;5.70;64.20
16118;DHT22;8163;50.118;5.342;2023-04-06T05:40:15;5.70;64.20
16118;DHT22;8163;50.118;5.342;2023-04-06T05:42:44;5.80;64.30
16118;DHT22;8163;50.118;5.342;2023-04-06T05:45:12;5.90;64.40
16118;DHT22;8163;50.118;5.342;2023-04-06T05:47:42;6.10;64.50
16118;DHT22;8163;50.118;5.342;2023-04-06T05:50:10;6.00;64.30
16118;DHT22;8163;50.118;5.342;2023-04-06T05:52:37;6.10;65.30
16118;DHT22;8163;50.118;5.342;2023-04-06T05:55:07;6.10;64.40
16118;DHT22;8163;50.118;5.342;2023-04-06T05:57:34;6.00;64.30
16118;DHT22;8163;50.118;5.342;2023-04-06T06:00:04;6.00;64.30
16118;DHT22;8163;50.118;5.342;2023-04-06T06:02:32;6.00;64.40
16118;DHT22;8163;50.118;5.342;2023-04-06T06:04:59;6.00;64.40
16118;DHT22;8163;50.118;5.342;2023-04-06T06:07:26;6.00;64.60
16118;DHT22;8163;50.118;5.342;2023-04-06T06:09:56;6.00;64.50
16118;DHT22;8163;50.118;5.342;2023-04-06T06:12:24;6.00;64.50
16118;DHT22;8163;50.118;5.342;2023-04-06T06:14:51;6.10;64.60
16118;DHT22;8163;50.118;5.342;2023-04-06T06:17:20;6.10;64.50
16118;DHT22;8163;50.118;5.342;2023-04-06T06:19:47;6.20;64.60
16118;DHT22;8163;50.118;5.342;2023-04-06T06:22:14;6.20;64.60
16118;DHT22;8163;50.118;5.342;2023-04-06T06:24:41;6.30;64.60
16118;DHT22;8163;50.118;5.342;2023-04-06T06:27:08;6.50;64.90
16118;DHT22;8163;50.118;5.342;2023-04-06T06:29:36;6.60;65.00
16118;DHT22;8163;50.118;5.342;2023-04-06T06:32:03;6.70;65.00
16118;DHT22;8163;50.118;5.342;2023-04-06T06:34:31;6.80;65.10
16118;DHT22;8163;50.118;5.342;2023-04-06T06:36:58;6.90;65.10
16118;DHT22;8163;50.118;5.342;2023-04-06T06:39:26;6.90;65.20
16118;DHT22;8163;50.118;5.342;2023-04-06T06:41:53;6.90;65.20
16118;DHT22;8163;50.118;5.342;2023-04-06T06:44:21;6.90;65.10
16118;DHT22;8163;50.118;5.342;2023-04-06T06:46:48;6.90;65.00
16118;DHT22;8163;50.118;5.342;2023-04-06T06:49:15;7.00;65.00
16118;DHT22;8163;50.118;5.342;2023-04-06T06:51:44;7.10;65.00
16118;DHT22;8163;50.118;5.342;2023-04-06T06:54:11;7.20;65.10
16118;DHT22;8163;50.118;5.342;2023-04-06T06:56:38;7.30;65.00
16118;DHT22;8163;50.118;5.342;2023-04-06T06:59:05;7.40;64.90
16118;DHT22;8163;50.118;5.342;2023-04-06T07:01:33;7.40;65.00
16118;DHT22;8163;50.118;5.342;2023-04-06T07:04:00;7.40;64.90
16118;DHT22;8163;50.118;5.342;2023-04-06T07:06:27;7.40;64.80
16118;DHT22;8163;50.118;5.342;2023-04-06T07:08:56;7.40;64.80
16118;DHT22;8163;50.118;5.342;2023-04-06T07:11:23;7.40;64.70
16118;DHT22;8163;50.118;5.342;2023-04-06T07:13:50;7.40;64.60
16118;DHT22;8163;50.118;5.342;2023-04-06T07:16:18;7.40;64.60
16118;DHT22;8163;50.118;5.342;2023-04-06T07:18:45;7.40;64.70
16118;DHT22;8163;50.118;5.342;2023-04-06T07:21:12;7.40;64.70
16118;DHT22;8163;50.118;5.342;2023-04-06T07:23:39;7.40;64.60
16118;DHT22;8163;50.118;5.342;2023-04-06T07:26:08;7.40;64.60
16118;DHT22;8163;50.118;5.342;2023-04-06T07:28:35;7.40;64.50
16118;DHT22;8163;50.118;5.342;2023-04-06T07:31:02;7.40;64.40
16118;DHT22;8163;50.118;5.342;2023-04-06T07:33:29;7.40;64.40
16118;DHT22;8163;50.118;5.342;2023-04-06T07:35:56;7.50;64.40
16118;DHT22;8163;50.118;5.342;2023-04-06T07:38:25;7.50;64.50
16118;DHT22;8163;50.118;5.342;2023-04-06T07:40:52;7.50;64.40
16118;DHT22;8163;50.118;5.342;2023-04-06T07:43:21;7.60;64.40
16118;DHT22;8163;50.118;5.342;2023-04-06T07:45:48;7.50;64.10
16118;DHT22;8163;50.118;5.342;2023-04-06T07:48:16;7.60;64.20
16118;DHT22;8163;50.118;5.342;2023-04-06T07:50:44;7.60;64.20
16118;DHT22;8163;50.118;5.342;2023-04-06T07:53:11;7.60;64.30
16118;DHT22;8163;50.118;5.342;2023-04-06T07:55:38;7.60;64.20
16118;DHT22;8163;50.118;5.342;2023-04-06T07:58:05;7.60;64.20
16118;DHT22;8163;50.118;5.342;2023-04-06T08:00:34;7.70;64.30
16118;DHT22;8163;50.118;5.342;2023-04-06T08:03:01;7.70;64.30
16118;DHT22;8163;50.118;5.342;2023-04-06T08:05:28;7.80;64.40
16118;DHT22;8163;50.118;5.342;2023-04-06T08:07:55;7.90;64.60
16118;DHT22;8163;50.118;5.342;2023-04-06T08:10:22;8.00;64.60
16118;DHT22;8163;50.118;5.342;2023-04-06T08:12:50;8.10;64.80
16118;DHT22;8163;50.118;5.342;2023-04-06T08:15:17;8.40;65.10
16118;DHT22;8163;50.118;5.342;2023-04-06T08:17:46;8.60;65.20
16118;DHT22;8163;50.118;5.342;2023-04-06T08:20:16;8.70;65.30
16118;DHT22;8163;50.118;5.342;2023-04-06T08:22:43;8.70;65.30
16118;DHT22;8163;50.118;5.342;2023-04-06T08:25:14;8.70;65.10
16118;DHT22;8163;50.118;5.342;2023-04-06T08:27:41;8.60;64.50
16118;DHT22;8163;50.118;5.342;2023-04-06T08:30:09;8.60;64.10
16118;DHT22;8163;50.118;5.342;2023-04-06T08:32:36;8.50;64.00
16118;DHT22;8163;50.118;5.342;2023-04-06T08:35:05;8.50;64.00
16118;DHT22;8163;50.118;5.342;2023-04-06T08:37:32;8.70;64.20
16118;DHT22;8163;50.118;5.342;2023-04-06T08:39:59;8.80;64.30
16118;DHT22;8163;50.118;5.342;2023-04-06T08:42:28;9.10;64.60
16118;DHT22;8163;50.118;5.342;2023-04-06T08:44:59;9.20;64.70
16118;DHT22;8163;50.118;5.342;2023-04-06T08:47:28;9.30;64.20
16118;DHT22;8163;50.118;5.342;2023-04-06T08:49:55;9.20;63.80
16118;DHT22;8163;50.118;5.342;2023-04-06T08:52:25;9.10;63.70
16118;DHT22;8163;50.118;5.342;2023-04-06T08:54:53;9.00;63.70
16118;DHT22;8163;50.118;5.342;2023-04-06T08:57:22;9.00;63.70
16118;DHT22;8163;50.118;5.342;2023-04-06T08:59:49;8.90;63.50
16118;DHT22;8163;50.118;5.342;2023-04-06T09:02:18;8.80;63.50
16118;DHT22;8163;50.118;5.342;2023-04-06T09:04:46;8.70;63.40
16118;DHT22;8163;50.118;5.342;2023-04-06T09:07:14;8.60;63.60
16118;DHT22;8163;50.118;5.342;2023-04-06T09:09:43;8.50;63.70
16118;DHT22;8163;50.118;5.342;2023-04-06T09:12:22;8.40;63.90
16118;DHT22;8163;50.118;5.342;2023-04-06T09:14:49;8.40;63.90
16118;DHT22;8163;50.118;5.342;2023-04-06T09:17:20;8.40;64.20
16118;DHT22;8163;50.118;5.342;2023-04-06T09:19:48;8.30;64.40
16118;DHT22;8163;50.118;5.342;2023-04-06T09:22:15;8.30;64.80
16118;DHT22;8163;50.118;5.342;2023-04-06T09:24:45;8.20;64.80
16118;DHT22;8163;50.118;5.342;2023-04-06T09:27:13;8.20;64.90
16118;DHT22;8163;50.118;5.342;2023-04-06T09:29:41;8.20;65.00
16118;DHT22;8163;50.118;5.342;2023-04-06T09:32:09;8.20;65.50
16118;DHT22;8163;50.118;5.342;2023-04-06T09:34:38;8.20;65.60
16118;DHT22;8163;50.118;5.342;2023-04-06T09:37:14;8.20;65.70
16118;DHT22;8163;50.118;5.342;2023-04-06T09:39:43;8.10;66.20
16118;DHT22;8163;50.118;5.342;2023-04-06T09:42:12;8.10;66.50
16118;DHT22;8163;50.118;5.342;2023-04-06T09:44:49;8.10;66.90
16118;DHT22;8163;50.118;5.342;2023-04-06T09:47:17;8.10;67.00
16118;DHT22;8163;50.118;5.342;2023-04-06T09:49:45;8.00;67.40
16118;DHT22;8163;50.118;5.342;2023-04-06T09:52:15;8.00;67.60
16118;DHT22;8163;50.118;5.342;2023-04-06T09:54:45;8.00;68.10
16118;DHT22;8163;50.118;5.342;2023-04-06T09:57:22;8.00;68.40
16118;DHT22;8163;50.118;5.342;2023-04-06T09:59:57;7.90;68.50
16118;DHT22;8163;50.118;5.342;2023-04-06T10:02:31;7.80;68.80
16118;DHT22;8163;50.118;5.342;2023-04-06T10:05:05;7.90;69.40
16118;DHT22;8163;50.118;5.342;2023-04-06T10:07:33;7.80;69.60
16118;DHT22;8163;50.118;5.342;2023-04-06T10:10:03;7.80;69.70
16118;DHT22;8163;50.118;5.342;2023-04-06T10:12:32;7.80;71.00
16118;DHT22;8163;50.118;5.342;2023-04-06T10:15:00;7.90;70.70
16118;DHT22;8163;50.118;5.342;2023-04-06T10:17:27;8.00;71.00
16118;DHT22;8163;50.118;5.342;2023-04-06T10:19:59;7.90;71.30
16118;DHT22;8163;50.118;5.342;2023-04-06T10:22:35;8.00;71.80
16118;DHT22;8163;50.118;5.342;2023-04-06T10:25:05;8.00;72.40
16118;DHT22;8163;50.118;5.342;2023-04-06T10:27:32;8.10;72.60
16118;DHT22;8163;50.118;5.342;2023-04-06T10:30:04;8.20;72.90
16118;DHT22;8163;50.118;5.342;2023-04-06T10:32:35;8.20;73.30
16118;DHT22;8163;50.118;5.342;2023-04-06T10:35:07;8.20;73.60
16118;DHT22;8163;50.118;5.342;2023-04-06T10:37:47;8.20;74.20
16118;DHT22;8163;50.118;5.342;2023-04-06T10:40:25;8.20;74.60
16118;DHT22;8163;50.118;5.342;2023-04-06T10:42:54;8.20;75.10
16118;DHT22;8163;50.118;5.342;2023-04-06T10:45:24;8.20;75.50
16118;DHT22;8163;50.118;5.342;2023-04-06T10:47:53;8.10;75.80
16118;DHT22;8163;50.118;5.342;2023-04-06T10:50:21;8.00;76.20
16118;DHT22;8163;50.118;5.342;2023-04-06T10:52:58;8.00;76.60
16118;DHT22;8163;50.118;5.342;2023-04-06T10:55:29;8.00;77.00
16118;DHT22;8163;50.118;5.342;2023-04-06T10:57:56;8.10;77.20
16118;DHT22;8163;50.118;5.342;2023-04-06T11:00:23;8.20;77.80
16118;DHT22;8163;50.118;5.342;2023-04-06T11:02:50;8.30;78.20
16118;DHT22;8163;50.118;5.342;2023-04-06T11:05:18;8.30;78.60
16118;DHT22;8163;50.118;5.342;2023-04-06T11:07:45;8.30;78.90
16118;DHT22;8163;50.118;5.342;2023-04-06T11:10:21;8.30;78.90
16118;DHT22;8163;50.118;5.342;2023-04-06T11:12:54;8.40;79.20
16118;DHT22;8163;50.118;5.342;2023-04-06T11:15:21;8.40;79.80
16118;DHT22;8163;50.118;5.342;2023-04-06T11:17:49;8.50;80.10
16118;DHT22;8163;50.118;5.342;2023-04-06T11:20:16;8.50;80.10
16118;DHT22;8163;50.118;5.342;2023-04-06T11:22:49;8.40;80.20
16118;DHT22;8163;50.118;5.342;2023-04-06T11:25:17;8.30;80.50
16118;DHT22;8163;50.118;5.342;2023-04-06T11:27:46;8.20;80.90
16118;DHT22;8163;50.118;5.342;2023-04-06T11:30:15;8.10;81.20
16118;DHT22;8163;50.118;5.342;2023-04-06T11:32:44;8.00;81.40
16118;DHT22;8163;50.118;5.342;2023-04-06T11:35:14;8.00;81.90
16118;DHT22;8163;50.118;5.342;2023-04-06T11:37:45;7.90;81.80
16118;DHT22;8163;50.118;5.342;2023-04-06T11:40:13;7.80;82.10
16118;DHT22;8163;50.118;5.342;2023-04-06T11:42:40;7.70;82.10
16118;DHT22;8163;50.118;5.342;2023-04-06T11:45:08;7.70;82.40
16118;DHT22;8163;50.118;5.342;2023-04-06T11:47:37;7.70;82.90
16118;DHT22;8163;50.118;5.342;2023-04-06T11:50:09;7.70;83.40
16118;DHT22;8163;50.118;5.342;2023-04-06T11:52:36;7.70;83.80
16118;DHT22;8163;50.118;5.342;2023-04-06T11:55:11;7.70;84.40
16118;DHT22;8163;50.118;5.342;2023-04-06T11:57:40;7.70;84.60
16118;DHT22;8163;50.118;5.342;2023-04-06T12:00:09;7.60;84.90
16118;DHT22;8163;50.118;5.342;2023-04-06T12:02:38;7.50;85.40
16118;DHT22;8163;50.118;5.342;2023-04-06T12:05:06;7.50;86.50
16118;DHT22;8163;50.118;5.342;2023-04-06T12:07:34;7.50;86.20
16118;DHT22;8163;50.118;5.342;2023-04-06T12:10:02;7.50;86.70
16118;DHT22;8163;50.118;5.342;2023-04-06T12:12:30;7.50;87.20
16118;DHT22;8163;50.118;5.342;2023-04-06T12:14:57;7.50;87.50
16118;DHT22;8163;50.118;5.342;2023-04-06T12:17:24;7.50;87.80
16118;DHT22;8163;50.118;5.342;2023-04-06T12:19:53;7.50;88.10
16118;DHT22;8163;50.118;5.342;2023-04-06T12:22:20;7.50;88.70
16118;DHT22;8163;50.118;5.342;2023-04-06T12:24:47;7.60;89.60
16118;DHT22;8163;50.118;5.342;2023-04-06T12:27:14;7.50;89.60
16118;DHT22;8163;50.118;5.342;2023-04-06T12:29:42;7.40;90.00
16118;DHT22;8163;50.118;5.342;2023-04-06T12:32:09;7.40;90.60
16118;DHT22;8163;50.118;5.342;2023-04-06T12:34:38;7.40;91.30
16118;DHT22;8163;50.118;5.342;2023-04-06T12:37:06;7.30;92.30
16118;DHT22;8163;50.118;5.342;2023-04-06T12:39:33;7.30;94.70
16118;DHT22;8163;50.118;5.342;2023-04-06T12:42:01;7.30;98.20
16118;DHT22;8163;50.118;5.342;2023-04-06T12:44:28;7.20;99.90
16118;DHT22;8163;50.118;5.342;2023-04-06T12:46:55;7.30;99.90
16118;DHT22;8163;50.118;5.342;2023-04-06T12:49:23;7.20;99.90
16118;DHT22;8163;50.118;5.342;2023-04-06T12:51:50;7.20;99.90
16118;DHT22;8163;50.118;5.342;2023-04-06T12:54:18;7.10;99.90
16118;DHT22;8163;50.118;5.342;2023-04-06T12:56:46;7.00;99.90
16118;DHT22;8163;50.118;5.342;2023-04-06T12:59:13;7.00;99.90
16118;DHT22;8163;50.118;5.342;2023-04-06T13:01:40;7.00;99.90
16118;DHT22;8163;50.118;5.342;2023-04-06T13:04:07;7.10;99.90
16118;DHT22;8163;50.118;5.342;2023-04-06T13:06:34;7.10;99.90
16118;DHT22;8163;50.118;5.342;2023-04-06T13:09:01;7.10;99.90
16118;DHT22;8163;50.118;5.342;2023-04-06T13:11:32;7.20;99.90
16118;DHT22;8163;50.118;5.342;2023-04-06T13:13:59;7.20;99.90
16118;DHT22;8163;50.118;5.342;2023-04-06T13:16:27;7.20;99.90
16118;DHT22;8163;50.118;5.342;2023-04-06T13:18:54;7.20;99.90
16118;DHT22;8163;50.118;5.342;2023-04-06T13:21:21;7.20;99.90
16118;DHT22;8163;50.118;5.342;2023-04-06T13:23:49;7.20;99.90
16118;DHT22;8163;50.118;5.342;2023-04-06T13:26:16;7.30;99.90
16118;DHT22;8163;50.118;5.342;2023-04-06T13:28:45;7.30;99.90
16118;DHT22;8163;50.118;5.342;2023-04-06T13:31:12;7.30;99.90
16118;DHT22;8163;50.118;5.342;2023-04-06T13:33:45;7.40;99.90
16118;DHT22;8163;50.118;5.342;2023-04-06T13:36:12;7.40;99.90
16118;DHT22;8163;50.118;5.342;2023-04-06T13:38:39;7.40;99.90
16118;DHT22;8163;50.118;5.342;2023-04-06T13:41:06;7.20;99.90
16118;DHT22;8163;50.118;5.342;2023-04-06T13:43:34;7.20;99.90
16118;DHT22;8163;50.118;5.342;2023-04-06T13:46:03;7.10;99.90
16118;DHT22;8163;50.118;5.342;2023-04-06T13:48:30;7.10;99.90
16118;DHT22;8163;50.118;5.342;2023-04-06T13:50:58;7.10;99.90
16118;DHT22;8163;50.118;5.342;2023-04-06T13:53:34;7.10;99.90
16118;DHT22;8163;50.118;5.342;2023-04-06T13:56:01;7.00;99.90
16118;DHT22;8163;50.118;5.342;2023-04-06T14:36:40;7.10;99.90
16118;DHT22;8163;50.118;5.342;2023-04-06T14:39:08;7.00;99.90
16118;DHT22;8163;50.118;5.342;2023-04-06T14:41:35;7.00;99.90
16118;DHT22;8163;50.118;5.342;2023-04-06T14:44:03;6.90;99.90
16118;DHT22;8163;50.118;5.342;2023-04-06T14:46:30;6.90;99.90
16118;DHT22;8163;50.118;5.342;2023-04-06T14:48:58;6.90;99.90
16118;DHT22;8163;50.118;5.342;2023-04-06T14:51:25;6.90;99.90
16118;DHT22;8163;50.118;5.342;2023-04-06T14:53:55;6.90;99.90
16118;DHT22;8163;50.118;5.342;2023-04-06T14:56:23;7.00;99.90
16118;DHT22;8163;50.118;5.342;2023-04-06T14:58:50;7.00;99.90
16118;DHT22;8163;50.118;5.342;2023-04-06T15:01:18;7.00;99.90
16118;DHT22;8163;50.118;5.342;2023-04-06T15:03:46;7.00;99.90
16118;DHT22;8163;50.118;5.342;2023-04-06T15:06:14;7.00;99.90
16118;DHT22;8163;50.118;5.342;2023-04-06T15:08:42;6.90;99.90
16118;DHT22;8163;50.118;5.342;2023-04-06T15:11:10;6.90;99.90
16118;DHT22;8163;50.118;5.342;2023-04-06T15:13:38;6.80;99.90
16118;DHT22;8163;50.118;5.342;2023-04-06T15:16:06;6.80;99.90
16118;DHT22;8163;50.118;5.342;2023-04-06T15:18:33;6.80;99.90
16118;DHT22;8163;50.118;5.342;2023-04-06T15:21:00;6.80;99.90
16118;DHT22;8163;50.118;5.342;2023-04-06T15:23:27;6.80;99.90
16118;DHT22;8163;50.118;5.342;2023-04-06T15:25:55;6.90;99.90
16118;DHT22;8163;50.118;5.342;2023-04-06T15:28:24;7.00;99.90
16118;DHT22;8163;50.118;5.342;2023-04-06T15:30:51;7.00;99.90
16118;DHT22;8163;50.118;5.342;2023-04-06T15:33:20;7.10;99.90
16118;DHT22;8163;50.118;5.342;2023-04-06T15:35:47;7.10;99.90
16118;DHT22;8163;50.118;5.342;2023-04-06T15:38:14;7.20;99.90
16118;DHT22;8163;50.118;5.342;2023-04-06T15:40:45;7.20;99.90
16118;DHT22;8163;50.118;5.342;2023-04-06T15:43:14;7.20;99.90
16118;DHT22;8163;50.118;5.342;2023-04-06T15:45:42;7.20;99.90
16118;DHT22;8163;50.118;5.342;2023-04-06T15:48:09;7.10;99.90
16118;DHT22;8163;50.118;5.342;2023-04-06T15:50:36;7.10;99.90
16118;DHT22;8163;50.118;5.342;2023-04-06T15:53:03;7.10;99.90
16118;DHT22;8163;50.118;5.342;2023-04-06T15:55:31;7.00;99.90
16118;DHT22;8163;50.118;5.342;2023-04-06T15:57:58;7.00;99.90
16118;DHT22;8163;50.118;5.342;2023-04-06T16:00:26;7.00;99.90
16118;DHT22;8163;50.118;5.342;2023-04-06T16:02:55;7.00;99.90
16118;DHT22;8163;50.118;5.342;2023-04-06T16:05:22;6.90;99.90
16118;DHT22;8163;50.118;5.342;2023-04-06T16:07:49;6.90;99.90
16118;DHT22;8163;50.118;5.342;2023-04-06T16:10:16;6.90;99.90
16118;DHT22;8163;50.118;5.342;2023-04-06T16:12:43;7.10;99.90
16118;DHT22;8163;50.118;5.342;2023-04-06T16:15:11;7.20;99.90
16118;DHT22;8163;50.118;5.342;2023-04-06T16:17:38;7.30;99.90
16118;DHT22;8163;50.118;5.342;2023-04-06T16:20:08;7.40;99.90
16118;DHT22;8163;50.118;5.342;2023-04-06T16:22:35;7.40;99.90
16118;DHT22;8163;50.118;5.342;2023-04-06T16:25:02;7.40;99.90
16118;DHT22;8163;50.118;5.342;2023-04-06T16:27:30;7.50;99.90
16118;DHT22;8163;50.118;5.342;2023-04-06T16:29:57;7.50;99.90
16118;DHT22;8163;50.118;5.342;2023-04-06T16:32:25;7.50;99.90
16118;DHT22;8163;50.118;5.342;2023-04-06T16:34:52;7.50;99.90
16118;DHT22;8163;50.118;5.342;2023-04-06T16:37:21;7.60;99.90
16118;DHT22;8163;50.118;5.342;2023-04-06T16:39:48;7.60;99.90
16118;DHT22;8163;50.118;5.342;2023-04-06T16:42:15;7.60;99.90
16118;DHT22;8163;50.118;5.342;2023-04-06T16:44:46;7.60;99.90